Time;durP1;ratioP1;P1;durP2;ratioP2;P2;SDS_P1;SDS_P2;PMS_P1;PMS_P2;Temp;Humidity;BMP_temperature;BMP_pressure;BME280_temperature;BME280_humidity;BME280_pressure;Samples;Min_cycle;Max_cycle;Signal;HPM_P1;HPM_P2
2021/08/24 00:01:16;;;;;;;5.22;3.90;;;17.40;99.90;;;;;;5091861;28;20204;-59
2021/08/24 00:03:42;;;;;;;6.57;4.53;;;17.40;99.90;;;;;;5091623;28;20619;-59
2021/08/24 00:06:09;;;;;;;4.75;4.05;;;17.40;99.90;;;;;;5091641;28;20215;-59
2021/08/24 00:08:36;;;;;;;4.57;3.83;;;17.40;99.90;;;;;;5091789;28;20208;-58
2021/08/24 00:11:04;;;;;;;3.83;3.50;;;17.40;99.90;;;;;;5091612;28;20228;-59
2021/08/24 00:13:30;;;;;;;6.03;4.00;;;17.40;99.90;;;;;;5091337;28;20583;-58
2021/08/24 00:15:59;;;;;;;4.93;3.30;;;17.40;99.90;;;;;;5091499;28;20211;-59
2021/08/24 00:18:26;;;;;;;4.82;3.63;;;17.40;99.90;;;;;;5091107;28;20225;-59
2021/08/24 00:20:55;;;;;;;3.85;3.45;;;17.40;99.90;;;;;;5091162;28;20234;-58
2021/08/24 00:23:25;;;;;;;4.70;3.33;;;17.30;99.90;;;;;;5091147;28;20208;-59
2021/08/24 00:25:53;;;;;;;6.55;4.35;;;17.20;99.90;;;;;;5091221;28;20261;-59
2021/08/24 00:28:20;;;;;;;3.80;3.50;;;17.10;99.90;;;;;;5091059;28;20729;-59
2021/08/24 00:30:47;;;;;;;4.40;3.55;;;17.10;99.90;;;;;;5091572;28;20231;-59
2021/08/24 00:33:16;;;;;;;5.63;3.55;;;17.00;99.90;;;;;;5090990;28;20212;-58
2021/08/24 00:35:43;;;;;;;4.90;3.92;;;16.90;99.90;;;;;;5091138;28;20614;-59
2021/08/24 00:38:12;;;;;;;3.97;3.50;;;16.90;99.90;;;;;;5091028;28;20224;-59
2021/08/24 00:40:40;;;;;;;5.10;3.53;;;16.90;99.90;;;;;;5090905;28;20293;-59
2021/08/24 00:43:08;;;;;;;5.88;3.58;;;16.90;99.90;;;;;;5091124;28;20204;-59
2021/08/24 00:45:36;;;;;;;4.65;3.70;;;16.80;99.90;;;;;;5090906;28;20328;-59
2021/08/24 00:48:03;;;;;;;7.07;3.30;;;16.80;99.90;;;;;;5091052;28;20200;-59
2021/08/24 00:50:34;;;;;;;4.80;3.23;;;16.70;99.90;;;;;;5091137;28;20235;-59
2021/08/24 00:53:03;;;;;;;4.53;3.47;;;16.60;99.90;;;;;;5090988;28;20291;-58
2021/08/24 00:55:30;;;;;;;4.88;3.10;;;16.50;99.90;;;;;;5090797;28;20253;-59
2021/08/24 00:58:00;;;;;;;5.70;3.10;;;16.50;99.90;;;;;;5090687;28;20235;-58
2021/08/24 01:00:28;;;;;;;3.77;2.90;;;16.40;99.90;;;;;;5090669;28;20227;-59
2021/08/24 01:02:57;;;;;;;5.17;2.80;;;16.20;99.90;;;;;;5091129;28;20215;-59
2021/08/24 01:05:26;;;;;;;4.13;2.70;;;16.10;99.90;;;;;;5090581;28;20724;-59
2021/08/24 01:08:01;;;;;;;4.93;2.93;;;16.10;99.90;;;;;;5090750;28;20273;-58
2021/08/24 01:10:37;;;;;;;9.13;2.70;;;16.10;99.90;;;;;;5091463;28;20227;-59
2021/08/24 01:13:09;;;;;;;3.70;3.00;;;16.10;99.90;;;;;;5090737;28;20585;-59
2021/08/24 01:15:43;;;;;;;5.33;2.97;;;16.10;99.90;;;;;;5090673;28;20212;-58
2021/08/24 01:18:12;;;;;;;3.67;2.73;;;16.10;99.90;;;;;;5090802;28;20801;-59
2021/08/24 01:20:56;;;;;;;3.87;2.90;;;16.10;99.90;;;;;;5091242;28;20227;-59
2021/08/24 01:23:51;;;;;;;3.10;2.80;;;16.10;99.90;;;;;;5090647;28;20215;-59
2021/08/24 01:26:32;;;;;;;4.27;2.70;;;16.10;99.90;;;;;;5090963;28;20204;-59
2021/08/24 01:29:56;;;;;;;5.53;2.87;;;16.10;99.90;;;;;;5091687;28;20203;-59
2021/08/24 01:32:46;;;;;;;5.47;3.10;;;16.10;99.90;;;;;;5031760;28;20217;-58
2021/08/24 01:35:32;;;;;;;3.07;2.57;;;16.00;99.90;;;;;;5094290;28;20215;-59
2021/08/24 01:38:10;;;;;;;6.47;2.63;;;16.00;99.90;;;;;;5094059;28;20224;-59
2021/08/24 01:40:41;;;;;;;5.97;3.00;;;15.90;99.90;;;;;;5094212;28;20242;-59
2021/08/24 01:43:15;;;;;;;5.17;3.03;;;15.90;99.90;;;;;;5094341;28;20205;-59
2021/08/24 01:45:47;;;;;;;4.07;2.77;;;15.80;99.90;;;;;;5094282;28;20204;-59
2021/08/24 01:48:21;;;;;;;3.60;2.70;;;15.70;99.90;;;;;;5093846;28;20665;-58
2021/08/24 01:50:54;;;;;;;3.30;3.00;;;15.70;99.90;;;;;;5094555;28;20498;-59
2021/08/24 01:53:25;;;;;;;3.20;2.90;;;15.60;99.90;;;;;;5094508;28;20211;-59
2021/08/24 01:55:55;;;;;;;6.07;3.40;;;15.50;99.90;;;;;;5094107;28;20204;-59
2021/08/24 01:58:27;;;;;;;3.53;2.80;;;15.50;99.90;;;;;;5093864;28;20645;-59
2021/08/24 02:00:57;;;;;;;6.50;3.43;;;15.40;99.90;;;;;;5094224;28;20224;-58
2021/08/24 02:03:28;;;;;;;4.13;3.20;;;15.40;99.90;;;;;;5094146;28;20261;-60
2021/08/24 02:05:59;;;;;;;5.37;3.00;;;15.40;99.90;;;;;;5094147;28;20208;-60
2021/08/24 02:08:32;;;;;;;8.10;3.37;;;15.40;99.90;;;;;;5093686;28;20200;-59
2021/08/24 02:11:02;;;;;;;8.27;3.10;;;15.20;99.90;;;;;;5093990;28;20231;-60
2021/08/24 02:13:33;;;;;;;3.67;3.10;;;15.00;99.90;;;;;;5093696;28;20672;-61
2021/08/24 02:16:03;;;;;;;3.10;2.80;;;14.90;99.90;;;;;;5094583;28;20212;-60
2021/08/24 02:18:35;;;;;;;6.27;3.53;;;14.90;99.90;;;;;;5093715;28;20289;-60
2021/08/24 02:21:07;;;;;;;4.53;3.30;;;14.80;99.90;;;;;;5094261;28;20238;-60
2021/08/24 02:23:36;;;;;;;3.87;3.47;;;14.70;99.90;;;;;;5093525;28;20273;-60
2021/08/24 02:26:06;;;;;;;6.43;3.60;;;14.70;99.90;;;;;;5094041;28;20212;-60
2021/08/24 02:28:36;;;;;;;6.07;3.73;;;14.60;99.90;;;;;;5093839;28;20204;-60
2021/08/24 02:31:10;;;;;;;3.83;3.43;;;14.50;99.90;;;;;;5094056;28;20228;-59
2021/08/24 02:33:41;;;;;;;4.43;3.93;;;14.40;99.90;;;;;;5093490;28;20227;-60
2021/08/24 02:36:11;;;;;;;4.70;3.33;;;14.40;99.90;;;;;;5093663;28;20204;-58
2021/08/24 02:38:44;;;;;;;4.47;3.40;;;14.30;99.90;;;;;;5093706;28;20591;-60
2021/08/24 02:41:16;;;;;;;4.13;3.60;;;14.30;99.90;;;;;;5093456;28;20257;-59
2021/08/24 02:43:52;;;;;;;4.80;3.03;;;14.30;99.90;;;;;;5096941;28;20597;-59
2021/08/24 02:46:23;;;;;;;5.27;3.37;;;14.20;99.90;;;;;;5093214;28;20204;-59
2021/08/24 02:48:52;;;;;;;5.13;3.60;;;14.20;99.90;;;;;;5092969;28;20211;-60
2021/08/24 02:51:21;;;;;;;3.77;3.37;;;14.20;99.90;;;;;;5093184;28;20269;-61
2021/08/24 02:53:58;;;;;;;4.23;3.77;;;14.20;99.90;;;;;;5092985;28;20257;-60
2021/08/24 02:56:25;;;;;;;4.13;3.60;;;14.10;99.90;;;;;;5092968;28;20208;-59
2021/08/24 02:58:52;;;;;;;5.40;3.73;;;14.10;99.90;;;;;;5092669;28;20224;-60
2021/08/24 03:01:18;;;;;;;6.47;3.40;;;14.00;99.90;;;;;;5092738;28;20204;-61
2021/08/24 03:03:45;;;;;;;5.70;3.87;;;14.00;99.90;;;;;;5092857;28;20208;-60
2021/08/24 03:06:11;;;;;;;7.73;3.50;;;14.10;99.90;;;;;;5092884;28;20253;-60
2021/08/24 03:08:39;;;;;;;4.20;3.60;;;14.00;99.90;;;;;;5092627;28;20636;-59
2021/08/24 03:11:08;;;;;;;9.03;3.33;;;14.10;99.90;;;;;;5093072;28;20277;-59
2021/08/24 03:13:44;;;;;;;3.70;3.30;;;14.00;99.90;;;;;;5092167;28;20257;-59
2021/08/24 03:16:16;;;;;;;5.37;3.63;;;13.80;99.90;;;;;;5092664;28;20199;-58
2021/08/24 03:18:48;;;;;;;6.63;3.73;;;13.70;99.90;;;;;;5092273;28;20224;-59
2021/08/24 03:21:18;;;;;;;3.70;3.33;;;13.60;99.90;;;;;;5092319;28;20568;-59
2021/08/24 03:23:46;;;;;;;4.40;3.53;;;13.50;99.90;;;;;;5092377;28;20604;-59
2021/08/24 03:26:15;;;;;;;7.37;3.97;;;13.50;99.90;;;;;;5092251;28;20211;-59
2021/08/24 03:28:43;;;;;;;6.37;3.90;;;13.40;99.90;;;;;;5092253;28;20201;-59
2021/08/24 03:31:14;;;;;;;4.87;3.77;;;13.50;99.90;;;;;;5092458;28;20212;-61
2021/08/24 03:33:41;;;;;;;5.30;3.90;;;13.50;99.90;;;;;;5092478;28;20208;-60
2021/08/24 03:36:08;;;;;;;7.33;3.97;;;13.40;99.90;;;;;;5092758;28;20200;-59
2021/08/24 03:38:34;;;;;;;4.90;4.40;;;13.40;99.90;;;;;;5092279;28;20236;-60
2021/08/24 03:41:03;;;;;;;7.13;5.30;;;13.40;99.90;;;;;;5115451;22;20736;-60
2021/08/24 03:43:31;;;;;;;6.20;4.17;;;13.40;99.90;;;;;;5091944;28;20227;-59
2021/08/24 03:45:58;;;;;;;8.60;4.70;;;13.40;99.90;;;;;;5092097;28;20242;-60
2021/08/24 03:48:25;;;;;;;5.57;4.10;;;13.30;99.90;;;;;;5091963;28;20204;-61
2021/08/24 03:50:52;;;;;;;4.90;4.40;;;13.30;99.90;;;;;;5091844;28;20235;-60
2021/08/24 03:53:18;;;;;;;5.63;4.60;;;13.30;99.90;;;;;;5091440;28;20216;-60
2021/08/24 03:55:45;;;;;;;6.37;4.60;;;13.30;99.90;;;;;;5091976;28;20219;-60
2021/08/24 03:58:13;;;;;;;5.40;4.60;;;13.30;99.90;;;;;;5091810;28;20220;-60
2021/08/24 04:00:43;;;;;;;7.17;4.47;;;13.30;99.90;;;;;;5092129;28;20754;-60
2021/08/24 04:03:09;;;;;;;5.27;4.13;;;13.20;99.90;;;;;;5092037;28;20204;-60
2021/08/24 04:05:36;;;;;;;5.90;4.70;;;13.20;99.90;;;;;;5091414;28;20203;-60
2021/08/24 04:08:03;;;;;;;11.37;4.70;;;13.20;99.90;;;;;;5091386;28;20345;-60
2021/08/24 04:10:29;;;;;;;7.97;4.20;;;13.20;99.90;;;;;;5091633;28;20285;-60
2021/08/24 04:12:56;;;;;;;5.97;4.47;;;13.20;99.90;;;;;;5091959;28;20231;-60
2021/08/24 04:15:23;;;;;;;8.40;6.43;;;13.20;99.90;;;;;;5091471;28;20208;-60
2021/08/24 04:17:51;;;;;;;5.50;4.40;;;13.10;99.90;;;;;;5091826;28;20208;-59
2021/08/24 04:20:19;;;;;;;6.33;4.63;;;13.10;99.90;;;;;;5091559;28;20247;-60
2021/08/24 04:22:48;;;;;;;5.03;3.97;;;13.10;99.90;;;;;;5091565;28;20231;-60
2021/08/24 04:25:16;;;;;;;8.03;5.30;;;13.10;99.90;;;;;;5091196;28;20204;-60
2021/08/24 04:27:43;;;;;;;8.07;4.80;;;13.10;99.90;;;;;;5091406;28;20295;-60
2021/08/24 04:30:11;;;;;;;6.57;4.73;;;13.10;99.90;;;;;;5091218;28;20251;-60
2021/08/24 04:32:41;;;;;;;6.47;3.80;;;13.10;99.90;;;;;;5091315;28;20282;-60
2021/08/24 04:35:10;;;;;;;8.17;5.30;;;13.10;99.90;;;;;;5091100;28;20580;-60
2021/08/24 04:37:37;;;;;;;8.77;6.20;;;13.10;99.90;;;;;;5090987;28;20679;-60
2021/08/24 04:40:05;;;;;;;8.83;7.70;;;13.10;99.90;;;;;;5091177;28;20235;-60
2021/08/24 04:42:32;;;;;;;9.03;5.27;;;13.10;99.90;;;;;;5091335;28;20667;-60
2021/08/24 04:44:58;;;;;;;14.50;10.17;;;13.20;99.90;;;;;;5091157;28;20212;-62
2021/08/24 04:47:25;;;;;;;7.20;5.03;;;13.20;99.90;;;;;;5091801;28;20242;-61
2021/08/24 04:49:52;;;;;;;48.90;30.67;;;13.20;99.90;;;;;;5091187;28;20350;-60
2021/08/24 04:52:20;;;;;;;11.87;7.33;;;13.30;99.90;;;;;;5091716;28;20204;-60
2021/08/24 04:54:46;;;;;;;8.20;6.07;;;13.30;99.90;;;;;;5091520;28;20600;-60
2021/08/24 04:57:13;;;;;;;10.37;5.13;;;13.40;99.90;;;;;;5091741;28;20231;-60
2021/08/24 04:59:40;;;;;;;7.63;6.13;;;13.50;99.90;;;;;;5091470;28;20235;-60
2021/08/24 05:02:07;;;;;;;7.70;4.40;;;13.50;99.90;;;;;;5091219;28;20629;-60
2021/08/24 05:04:33;;;;;;;6.10;4.10;;;13.60;99.90;;;;;;5093442;28;20210;-61
2021/08/24 05:07:01;;;;;;;4.73;3.47;;;13.60;99.90;;;;;;5095773;28;20211;-60
2021/08/24 05:09:29;;;;;;;5.67;4.20;;;13.70;99.90;;;;;;5095501;28;20196;-60
2021/08/24 05:11:56;;;;;;;9.07;6.90;;;13.90;99.90;;;;;;5095503;28;20239;-60
2021/08/24 05:14:24;;;;;;;6.47;5.07;;;13.90;99.90;;;;;;5094869;28;20234;-60
2021/08/24 05:16:54;;;;;;;7.73;4.90;;;14.10;99.90;;;;;;5095097;28;20210;-61
2021/08/24 05:19:21;;;;;;;8.63;4.93;;;14.30;99.90;;;;;;5094675;28;20265;-60
2021/08/24 05:21:47;;;;;;;6.50;4.40;;;14.50;99.90;;;;;;5094823;28;20204;-60
2021/08/24 05:24:14;;;;;;;6.20;4.30;;;14.70;99.90;;;;;;5094650;28;20215;-60
2021/08/24 05:26:42;;;;;;;5.00;3.77;;;14.90;99.90;;;;;;5094707;28;20208;-59
2021/08/24 05:29:09;;;;;;;6.37;4.17;;;15.10;99.90;;;;;;5094378;28;20593;-61
2021/08/24 05:31:35;;;;;;;5.00;4.13;;;15.40;99.90;;;;;;5094602;28;20711;-60
2021/08/24 05:34:04;;;;;;;5.50;3.60;;;15.60;99.90;;;;;;5094459;28;20212;-60
2021/08/24 05:36:31;;;;;;;4.53;3.67;;;15.70;99.90;;;;;;5094668;28;20204;-60
2021/08/24 05:38:58;;;;;;;4.20;3.30;;;15.90;99.90;;;;;;5094752;28;20224;-61
2021/08/24 05:41:24;;;;;;;5.77;3.40;;;16.00;99.90;;;;;;5094336;28;20259;-60
2021/08/24 05:43:52;;;;;;;6.83;3.97;;;16.30;99.90;;;;;;5094382;28;20690;-60
2021/08/24 05:46:19;;;;;;;4.27;3.60;;;16.60;99.90;;;;;;5094673;28;20208;-60
2021/08/24 05:48:46;;;;;;;5.37;3.60;;;16.80;99.90;;;;;;5094415;28;20205;-61
2021/08/24 05:51:15;;;;;;;5.57;3.73;;;16.90;99.90;;;;;;5094318;28;20224;-60
2021/08/24 05:53:41;;;;;;;7.37;3.80;;;17.00;99.90;;;;;;5094390;28;20208;-60
2021/08/24 05:56:09;;;;;;;4.50;3.35;;;17.00;99.90;;;;;;5094128;28;20216;-61
2021/08/24 05:58:36;;;;;;;9.20;3.30;;;17.10;99.90;;;;;;5094039;28;20228;-60
2021/08/24 06:01:04;;;;;;;5.83;3.07;;;17.20;99.90;;;;;;5094407;28;20235;-60
2021/08/24 06:03:31;;;;;;;4.82;3.30;;;17.20;99.90;;;;;;5094320;28;20207;-60
2021/08/24 06:05:58;;;;;;;5.03;3.20;;;17.20;99.90;;;;;;5094355;28;20211;-60
2021/08/24 06:08:25;;;;;;;4.28;3.15;;;16.90;99.90;;;;;;5094171;28;20688;-60
2021/08/24 06:10:52;;;;;;;3.20;2.90;;;16.70;99.90;;;;;;5094628;28;20227;-60
2021/08/24 06:13:19;;;;;;;5.68;3.05;;;16.60;99.90;;;;;;5094554;28;20207;-60
2021/08/24 06:15:45;;;;;;;7.57;3.28;;;16.60;99.90;;;;;;5094002;28;20549;-60
2021/08/24 06:18:13;;;;;;;5.00;3.25;;;16.80;99.90;;;;;;5094816;28;20588;-60
2021/08/24 06:20:41;;;;;;;3.58;3.28;;;17.10;99.90;;;;;;5094251;28;20232;-59
2021/08/24 06:23:08;;;;;;;4.25;3.42;;;17.30;99.90;;;;;;5094498;28;20239;-60
2021/08/24 06:25:34;;;;;;;3.58;3.00;;;17.60;99.90;;;;;;5094067;28;20204;-61
2021/08/24 06:28:01;;;;;;;5.18;3.33;;;17.80;99.90;;;;;;5093825;28;20207;-61
2021/08/24 06:30:28;;;;;;;3.78;2.95;;;17.80;99.90;;;;;;5093636;28;20281;-61
2021/08/24 06:32:56;;;;;;;3.58;3.17;;;17.70;99.90;;;;;;5093787;28;20211;-61
2021/08/24 06:35:24;;;;;;;5.20;2.70;;;17.60;99.90;;;;;;5093744;28;20295;-61
2021/08/24 06:37:51;;;;;;;4.53;3.00;;;17.50;99.90;;;;;;5093101;28;20204;-61
2021/08/24 06:40:18;;;;;;;5.35;2.97;;;17.50;99.90;;;;;;5093503;28;20320;-61
2021/08/24 06:42:47;;;;;;;3.53;3.22;;;17.60;99.90;;;;;;5093511;28;20215;-60
2021/08/24 06:45:18;;;;;;;6.15;3.10;;;17.70;99.90;;;;;;5093572;28;20691;-61
2021/08/24 06:47:44;;;;;;;6.10;3.53;;;17.40;99.90;;;;;;5093216;28;20200;-60
2021/08/24 06:50:12;;;;;;;3.33;3.03;;;17.20;99.90;;;;;;5093222;28;20626;-60
2021/08/24 06:52:40;;;;;;;5.88;3.53;;;16.90;99.90;;;;;;5093300;28;20589;-61
2021/08/24 06:55:08;;;;;;;3.78;3.08;;;16.80;99.90;;;;;;5093024;28;20204;-60
2021/08/24 06:57:35;;;;;;;3.33;3.00;;;16.70;99.90;;;;;;5092872;28;20201;-61
2021/08/24 07:00:02;;;;;;;4.03;3.13;;;16.40;99.90;;;;;;5093106;28;20227;-60
2021/08/24 07:02:29;;;;;;;5.32;3.00;;;16.30;99.90;;;;;;5092999;28;20208;-60
2021/08/24 07:04:55;;;;;;;4.50;3.33;;;16.30;99.90;;;;;;5092905;28;20211;-60
2021/08/24 07:07:22;;;;;;;3.90;3.30;;;16.30;99.90;;;;;;5092820;28;20211;-60
2021/08/24 07:09:51;;;;;;;5.22;2.97;;;16.30;99.90;;;;;;5092646;28;20215;-61
2021/08/24 07:12:18;;;;;;;5.00;2.90;;;16.60;99.90;;;;;;5092725;28;20299;-60
2021/08/24 07:14:45;;;;;;;3.50;2.95;;;16.70;99.90;;;;;;5092683;28;20204;-60
2021/08/24 07:17:11;;;;;;;3.95;2.90;;;16.90;99.90;;;;;;5092812;28;20208;-61
2021/08/24 07:19:38;;;;;;;5.80;2.90;;;17.10;99.90;;;;;;5092113;28;20777;-60
2021/08/24 07:22:05;;;;;;;4.43;3.07;;;17.30;99.90;;;;;;5092825;28;20207;-60
2021/08/24 07:24:32;;;;;;;4.10;2.70;;;17.50;99.90;;;;;;5092742;28;20207;-60
2021/08/24 07:27:00;;;;;;;4.30;3.25;;;17.80;99.90;;;;;;5092233;28;20589;-60
2021/08/24 07:29:26;;;;;;;5.25;2.80;;;17.80;99.90;;;;;;5092387;28;20207;-60
2021/08/24 07:31:53;;;;;;;5.60;2.95;;;17.80;99.90;;;;;;5092461;28;20204;-60
2021/08/24 07:34:20;;;;;;;5.00;2.80;;;18.30;99.90;;;;;;5092571;28;20294;-60
2021/08/24 07:36:46;;;;;;;4.57;2.72;;;19.20;99.90;;;;;;5092301;28;20678;-61
2021/08/24 07:39:13;;;;;;;6.45;2.58;;;20.00;99.90;;;;;;5092232;28;20637;-60
2021/08/24 07:41:40;;;;;;;5.18;2.80;;;20.50;99.90;;;;;;5092059;28;20231;-60
2021/08/24 07:44:08;;;;;;;8.02;2.88;;;20.60;99.90;;;;;;5092088;28;20482;-60
2021/08/24 07:46:35;;;;;;;2.95;2.33;;;20.60;99.90;;;;;;5091999;28;20465;-60
2021/08/24 07:49:01;;;;;;;3.55;2.47;;;20.20;99.90;;;;;;5092141;28;20208;-60
2021/08/24 07:51:28;;;;;;;3.08;2.70;;;20.20;99.90;;;;;;5092214;28;20231;-60
2021/08/24 07:53:55;;;;;;;3.45;2.60;;;20.50;99.90;;;;;;5091525;28;20725;-60
2021/08/24 07:56:22;;;;;;;2.50;2.00;;;20.40;99.90;;;;;;5092020;28;20273;-60
2021/08/24 07:58:49;;;;;;;5.10;2.03;;;20.50;99.90;;;;;;5091799;28;20357;-60
2021/08/24 08:01:17;;;;;;;3.70;2.50;;;21.00;99.90;;;;;;5091763;28;20251;-60
2021/08/24 08:03:43;;;;;;;4.93;2.20;;;21.40;99.90;;;;;;5091750;28;20204;-60
2021/08/24 08:06:10;;;;;;;4.85;2.50;;;21.50;99.90;;;;;;5091604;28;20548;-61
2021/08/24 08:08:37;;;;;;;5.15;2.30;;;21.60;99.90;;;;;;5091732;28;20215;-60
2021/08/24 08:11:04;;;;;;;4.28;2.30;;;21.90;99.90;;;;;;5091553;28;20707;-60
2021/08/24 08:13:30;;;;;;;3.97;2.22;;;22.80;99.90;;;;;;5091288;28;20284;-60
2021/08/24 08:15:57;;;;;;;5.03;2.20;;;23.40;99.90;;;;;;5091568;28;20208;-61
2021/08/24 08:18:25;;;;;;;4.13;2.00;;;23.50;99.90;;;;;;5091970;28;20254;-68
2021/08/24 08:20:52;;;;;;;4.97;2.20;;;23.20;99.90;;;;;;5071562;28;20259;-62
2021/08/24 08:23:20;;;;;;;2.58;2.10;;;22.90;99.90;;;;;;5071081;28;20742;-62
2021/08/24 08:25:47;;;;;;;5.85;2.13;;;22.50;99.90;;;;;;5071063;28;20212;-62
2021/08/24 08:28:14;;;;;;;3.05;2.20;;;22.10;99.90;;;;;;5070635;28;20205;-62
2021/08/24 08:30:42;;;;;;;4.03;2.50;;;21.60;99.90;;;;;;5070720;28;20228;-62
2021/08/24 08:33:09;;;;;;;3.03;2.15;;;21.30;99.90;;;;;;5070890;28;20209;-62
2021/08/24 08:35:37;;;;;;;4.75;2.20;;;21.20;99.90;;;;;;5070650;28;20205;-62
2021/08/24 08:38:05;;;;;;;3.65;2.20;;;21.10;99.90;;;;;;5069697;28;20216;-63
2021/08/24 08:40:46;;;;;;;4.70;2.80;;;21.00;99.90;;;;;;5070557;28;20243;-62
2021/08/24 08:43:24;;;;;;;3.22;2.22;;;20.50;99.90;;;;;;5070865;28;20200;-62
2021/08/24 08:45:52;;;;;;;3.15;2.80;;;20.20;99.90;;;;;;5070917;28;20642;-65
2021/08/24 08:48:30;;;;;;;3.33;3.03;;;20.10;99.90;;;;;;5070705;28;20680;-64
2021/08/24 08:51:06;;;;;;;3.00;2.65;;;20.00;99.90;;;;;;5070817;28;20235;-63
2021/08/24 08:53:38;;;;;;;5.03;3.00;;;19.80;99.90;;;;;;5070907;28;20208;-62
2021/08/24 08:56:10;;;;;;;3.47;2.78;;;19.80;99.90;;;;;;5071046;28;20208;-63
2021/08/24 08:58:46;;;;;;;3.28;2.80;;;19.60;99.90;;;;;;5071036;28;20281;-63
2021/08/24 09:01:17;;;;;;;4.65;2.58;;;19.50;99.90;;;;;;5070800;28;20232;-63
2021/08/24 09:03:52;;;;;;;5.07;2.67;;;19.50;99.90;;;;;;5070930;28;20212;-62
2021/08/24 09:06:22;;;;;;;4.40;2.90;;;19.60;99.90;;;;;;5070851;28;20208;-63
2021/08/24 09:08:49;;;;;;;5.45;2.88;;;19.70;99.90;;;;;;5070573;28;20681;-64
2021/08/24 09:11:16;;;;;;;3.45;2.63;;;19.90;99.90;;;;;;5070755;28;20220;-64
2021/08/24 09:13:48;;;;;;;6.00;2.60;;;19.90;99.90;;;;;;5070436;28;20702;-63
2021/08/24 09:16:26;;;;;;;5.97;2.40;;;20.00;99.90;;;;;;5070349;28;20205;-62
2021/08/24 09:18:56;;;;;;;4.60;2.50;;;20.10;99.90;;;;;;5070709;28;20235;-63
2021/08/24 09:21:27;;;;;;;5.43;3.00;;;20.00;99.90;;;;;;5070359;28;20311;-63
2021/08/24 09:23:56;;;;;;;5.30;2.65;;;20.00;99.90;;;;;;5070661;28;20200;-63
2021/08/24 09:26:35;;;;;;;3.80;2.72;;;20.00;99.90;;;;;;5070641;28;20200;-63
2021/08/24 09:29:02;;;;;;;2.95;2.63;;;20.10;99.90;;;;;;5071222;28;20197;-65
2021/08/24 09:31:28;;;;;;;4.95;2.28;;;20.00;99.90;;;;;;5070600;28;20762;-65
2021/08/24 09:33:55;;;;;;;6.50;2.80;;;19.90;99.90;;;;;;5070751;28;20200;-62
2021/08/24 09:36:22;;;;;;;4.35;2.83;;;19.90;99.90;;;;;;5070645;28;20217;-64
2021/08/24 09:38:54;;;;;;;3.08;2.30;;;19.90;99.90;;;;;;5070929;28;20619;-64
2021/08/24 09:41:24;;;;;;;3.47;2.75;;;19.80;99.90;;;;;;5108402;22;21022;-58
2021/08/24 09:43:53;;;;;;;4.43;2.70;;;20.00;99.90;;;;;;5090377;28;20270;-60
2021/08/24 09:46:30;;;;;;;5.00;2.50;;;20.00;99.90;;;;;;5090508;28;20208;-58
2021/08/24 09:49:03;;;;;;;4.30;2.65;;;20.10;99.90;;;;;;5090192;28;20204;-60
2021/08/24 09:51:39;;;;;;;4.25;2.63;;;20.20;99.90;;;;;;5093850;28;20251;-61
2021/08/24 09:54:14;;;;;;;2.88;2.45;;;20.20;99.90;;;;;;5093774;28;20204;-62
2021/08/24 09:56:43;;;;;;;4.25;2.85;;;20.10;99.90;;;;;;5093960;28;20206;-59
2021/08/24 09:59:12;;;;;;;3.95;2.90;;;19.90;99.90;;;;;;5093970;28;20208;-62
2021/08/24 10:01:47;;;;;;;3.40;2.67;;;19.90;99.90;;;;;;5093841;28;20228;-60
2021/08/24 10:04:13;;;;;;;2.97;2.63;;;20.00;99.90;;;;;;5093688;28;20674;-60
2021/08/24 10:06:52;;;;;;;4.22;3.50;;;20.20;99.90;;;;;;5093824;28;20419;-61
2021/08/24 10:09:26;;;;;;;3.05;2.75;;;20.30;99.90;;;;;;5093988;28;20208;-60
2021/08/24 10:11:53;;;;;;;2.75;2.30;;;20.40;99.90;;;;;;5094090;28;20223;-61
2021/08/24 10:14:22;;;;;;;7.05;3.65;;;20.50;99.90;;;;;;5093392;28;20209;-60
2021/08/24 10:16:52;;;;;;;4.90;3.10;;;20.60;99.90;;;;;;5093740;28;20648;-63
2021/08/24 10:19:22;;;;;;;3.05;2.60;;;20.60;99.90;;;;;;5093769;28;20231;-60
2021/08/24 10:21:57;;;;;;;4.32;2.55;;;20.60;99.90;;;;;;5093342;28;20721;-59
2021/08/24 10:24:30;;;;;;;2.95;2.63;;;20.50;99.90;;;;;;5093470;28;20204;-61
2021/08/24 10:27:00;;;;;;;3.58;2.63;;;20.40;99.90;;;;;;5093500;28;20215;-61
2021/08/24 10:29:29;;;;;;;3.53;2.60;;;20.40;99.90;;;;;;5093642;28;20261;-60
2021/08/24 10:32:02;;;;;;;2.80;2.50;;;20.40;99.90;;;;;;5093623;28;20227;-62
2021/08/24 10:34:33;;;;;;;3.33;2.80;;;20.50;99.90;;;;;;5093609;28;20204;-60
2021/08/24 10:37:32;;;;;;;5.88;3.65;;;20.60;99.90;;;;;;5093488;28;20584;-60
2021/08/24 10:40:17;;;;;;;2.72;2.45;;;20.80;99.90;;;;;;5093717;28;20240;-61
2021/08/24 10:43:00;;;;;;;3.40;3.10;;;20.70;99.90;;;;;;5093637;28;20212;-61
2021/08/24 10:45:29;;;;;;;3.80;2.53;;;20.80;99.90;;;;;;5093040;28;20572;-61
2021/08/24 10:47:58;;;;;;;4.00;2.28;;;20.80;99.90;;;;;;5092950;28;20258;-62
2021/08/24 10:50:34;;;;;;;3.40;2.40;;;20.80;99.90;;;;;;5092784;28;20695;-61
2021/08/24 10:53:07;;;;;;;2.47;2.28;;;20.80;99.90;;;;;;5093056;28;20211;-63
2021/08/24 10:55:39;;;;;;;2.60;2.30;;;20.80;99.90;;;;;;5092821;28;20216;-61
2021/08/24 10:58:11;;;;;;;3.20;2.40;;;20.80;99.90;;;;;;5092655;28;20687;-62
2021/08/24 11:00:53;;;;;;;2.40;2.20;;;20.70;99.90;;;;;;5092594;28;20240;-60
2021/08/24 11:03:47;;;;;;;3.13;2.70;;;20.80;99.90;;;;;;5092575;28;20211;-60
2021/08/24 11:06:22;;;;;;;3.72;2.50;;;20.70;99.90;;;;;;5086324;28;20208;-62
2021/08/24 11:09:00;;;;;;;4.57;2.67;;;20.50;99.90;;;;;;5092650;28;20434;-61
2021/08/24 11:11:43;;;;;;;3.25;2.90;;;20.50;99.90;;;;;;5092724;28;20239;-62
2021/08/24 11:14:22;;;;;;;3.55;2.90;;;20.60;99.90;;;;;;5092505;28;20601;-61
2021/08/24 11:17:00;;;;;;;2.63;2.42;;;20.80;99.90;;;;;;5092578;28;20604;-60
2021/08/24 11:19:49;;;;;;;5.25;4.18;;;21.00;99.90;;;;;;5092546;28;20257;-61
2021/08/24 11:22:23;;;;;;;3.78;2.95;;;21.20;99.90;;;;;;5092368;28;20224;-61
2021/08/24 11:24:58;;;;;;;4.60;2.90;;;21.30;99.90;;;;;;5092083;28;20556;-62
2021/08/24 11:27:35;;;;;;;4.38;3.03;;;21.00;99.90;;;;;;5092185;28;20675;-61
2021/08/24 11:30:10;;;;;;;4.53;2.72;;;20.90;99.90;;;;;;5092007;28;20223;-61
2021/08/24 11:32:41;;;;;;;4.15;2.72;;;20.80;99.90;;;;;;5092228;28;20629;-62
2021/08/24 11:35:12;;;;;;;6.20;3.05;;;20.70;99.90;;;;;;5092078;28;20451;-61
2021/08/24 11:37:46;;;;;;;3.25;2.67;;;20.70;99.90;;;;;;5091929;28;20207;-62
2021/08/24 11:40:17;;;;;;;4.20;2.72;;;20.80;99.90;;;;;;5092026;28;20232;-61
2021/08/24 11:42:48;;;;;;;3.33;2.80;;;21.00;99.90;;;;;;5092347;28;20261;-61
2021/08/24 11:45:21;;;;;;;4.50;2.63;;;21.20;99.90;;;;;;5091922;28;20250;-58
2021/08/24 11:47:52;;;;;;;6.07;2.80;;;21.60;99.90;;;;;;5091702;28;20215;-59
2021/08/24 11:50:23;;;;;;;4.50;2.65;;;21.70;99.90;;;;;;5091817;28;20227;-61
2021/08/24 11:52:55;;;;;;;4.25;2.42;;;21.80;99.90;;;;;;5092082;28;20229;-59
2021/08/24 11:55:26;;;;;;;3.08;2.13;;;21.80;99.90;;;;;;5091872;28;20602;-59
2021/08/24 11:58:07;;;;;;;4.47;2.67;;;21.80;99.90;;;;;;5091712;28;20435;-59
2021/08/24 12:00:34;;;;;;;2.97;2.25;;;22.10;99.90;;;;;;5091387;28;20239;-60
2021/08/24 12:03:08;;;;;;;3.67;2.60;;;22.30;99.90;;;;;;5091764;28;20204;-60
2021/08/24 12:05:44;;;;;;;3.85;2.78;;;22.50;99.90;;;;;;5091378;28;20256;-60
2021/08/24 12:08:18;;;;;;;3.17;2.65;;;22.30;99.90;;;;;;5091470;28;20223;-60
2021/08/24 12:11:01;;;;;;;3.58;2.85;;;22.00;99.90;;;;;;5092001;28;20220;-59
2021/08/24 12:13:32;;;;;;;3.90;2.63;;;21.90;99.90;;;;;;5091281;28;20200;-60
2021/08/24 12:16:20;;;;;;;3.78;2.70;;;21.80;99.90;;;;;;5091529;28;20218;-59
2021/08/24 12:18:47;;;;;;;3.10;2.78;;;22.00;99.90;;;;;;5091361;28;20227;-59
2021/08/24 12:21:32;;;;;;;3.65;2.40;;;22.10;99.90;;;;;;5091114;28;20220;-61
2021/08/24 12:24:40;;;;;;;3.90;2.88;;;22.30;99.90;;;;;;5091359;28;20215;-59
2021/08/24 12:27:58;;;;;;;5.57;3.03;;;22.30;99.90;;;;;;5091091;28;20706;-59
2021/08/24 12:30:32;;;;;;;8.10;3.28;;;22.20;99.90;;;;;;5091200;28;20228;-59
2021/08/24 12:33:13;;;;;;;5.05;2.45;;;22.00;99.90;;;;;;5091231;28;20203;-60
2021/08/24 12:35:42;;;;;;;5.32;2.67;;;21.80;99.90;;;;;;5090950;28;20215;-59
2021/08/24 12:38:30;;;;;;;5.35;3.00;;;22.00;99.90;;;;;;5090794;28;20246;-62
2021/08/24 12:40:58;;;;;;;5.35;2.65;;;22.30;99.90;;;;;;5090565;28;20234;-59
2021/08/24 12:43:40;;;;;;;3.85;2.70;;;22.60;99.90;;;;;;5091266;28;20493;-59
2021/08/24 12:46:33;;;;;;;4.45;2.60;;;22.80;99.90;;;;;;5090832;28;20690;-59
2021/08/24 12:49:36;;;;;;;3.15;2.33;;;23.20;99.90;;;;;;5091096;28;20211;-59
2021/08/24 12:52:26;;;;;;;4.50;2.70;;;23.40;99.90;;;;;;5091012;28;20226;-60
2021/08/24 12:54:59;;;;;;;2.95;2.15;;;23.40;99.90;;;;;;5090579;28;20214;-60
2021/08/24 12:57:31;;;;;;;3.92;2.80;;;23.10;99.90;;;;;;5090966;28;20235;-60
2021/08/24 13:00:18;;;;;;;5.22;2.60;;;23.10;99.90;;;;;;5090771;28;20642;-62
2021/08/24 13:02:54;;;;;;;5.78;2.60;;;23.10;99.90;;;;;;5090873;28;20228;-60
2021/08/24 13:05:25;;;;;;;3.80;2.55;;;23.00;99.90;;;;;;5090492;28;20743;-60